sensor_id;sensor_type;location;lat;lon;timestamp;temperature;humidity
69009;SHT31;56065;52.472;13.380;2023-07-28T00:00:04;18.56;94.52
69009;SHT31;56065;52.472;13.380;2023-07-28T00:02:29;18.52;94.69
69009;SHT31;56065;52.472;13.380;2023-07-28T00:04:55;18.56;94.60
69009;SHT31;56065;52.472;13.380;2023-07-28T00:07:20;18.63;94.53
69009;SHT31;56065;52.472;13.380;2023-07-28T00:09:45;18.50;94.76
69009;SHT31;56065;52.472;13.380;2023-07-28T00:12:11;18.57;94.97
69009;SHT31;56065;52.472;13.380;2023-07-28T00:14:36;18.60;94.62
69009;SHT31;56065;52.472;13.380;2023-07-28T00:17:01;18.61;94.72
69009;SHT31;56065;52.472;13.380;2023-07-28T00:19:27;18.60;94.92
69009;SHT31;56065;52.472;13.380;2023-07-28T00:21:52;18.57;95.11
69009;SHT31;56065;52.472;13.380;2023-07-28T00:24:18;18.60;94.91
69009;SHT31;56065;52.472;13.380;2023-07-28T00:26:44;18.56;95.18
69009;SHT31;56065;52.472;13.380;2023-07-28T00:29:09;18.59;94.80
69009;SHT31;56065;52.472;13.380;2023-07-28T00:31:35;18.64;94.56
69009;SHT31;56065;52.472;13.380;2023-07-28T00:34:01;18.56;95.00
69009;SHT31;56065;52.472;13.380;2023-07-28T00:36:27;18.59;94.80
69009;SHT31;56065;52.472;13.380;2023-07-28T00:38:53;18.59;95.06
69009;SHT31;56065;52.472;13.380;2023-07-28T00:41:18;18.60;94.95
69009;SHT31;56065;52.472;13.380;2023-07-28T00:43:43;18.61;94.99
69009;SHT31;56065;52.472;13.380;2023-07-28T00:46:12;18.60;95.07
69009;SHT31;56065;52.472;13.380;2023-07-28T00:48:38;18.57;95.28
69009;SHT31;56065;52.472;13.380;2023-07-28T00:51:05;18.61;94.86
69009;SHT31;56065;52.472;13.380;2023-07-28T00:53:31;18.63;94.82
69009;SHT31;56065;52.472;13.380;2023-07-28T00:55:56;18.61;95.15
69009;SHT31;56065;52.472;13.380;2023-07-28T00:58:22;18.60;95.26
69009;SHT31;56065;52.472;13.380;2023-07-28T01:00:47;18.59;95.44
69009;SHT31;56065;52.472;13.380;2023-07-28T01:03:14;18.64;95.14
69009;SHT31;56065;52.472;13.380;2023-07-28T01:08:53;18.67;95.19
69009;SHT31;56065;52.472;13.380;2023-07-28T01:11:20;18.66;95.35
69009;SHT31;56065;52.472;13.380;2023-07-28T01:13:46;18.67;95.27
69009;SHT31;56065;52.472;13.380;2023-07-28T01:16:11;18.66;95.68
69009;SHT31;56065;52.472;13.380;2023-07-28T01:18:37;18.71;95.19
69009;SHT31;56065;52.472;13.380;2023-07-28T01:21:06;18.61;95.38
69009;SHT31;56065;52.472;13.380;2023-07-28T01:26:35;18.71;95.27
69009;SHT31;56065;52.472;13.380;2023-07-28T01:29:01;18.70;95.09
69009;SHT31;56065;52.472;13.380;2023-07-28T01:31:27;18.70;95.29
69009;SHT31;56065;52.472;13.380;2023-07-28T01:33:53;18.70;95.41
69009;SHT31;56065;52.472;13.380;2023-07-28T01:36:18;18.66;95.26
69009;SHT31;56065;52.472;13.380;2023-07-28T01:38:43;18.64;95.63
69009;SHT31;56065;52.472;13.380;2023-07-28T01:41:09;18.67;95.54
69009;SHT31;56065;52.472;13.380;2023-07-28T01:43:34;18.68;95.69
69009;SHT31;56065;52.472;13.380;2023-07-28T01:45:59;18.68;95.52
69009;SHT31;56065;52.472;13.380;2023-07-28T01:48:26;18.68;95.67
69009;SHT31;56065;52.472;13.380;2023-07-28T01:50:51;18.74;95.73
69009;SHT31;56065;52.472;13.380;2023-07-28T01:53:16;18.71;95.68
69009;SHT31;56065;52.472;13.380;2023-07-28T01:55:42;18.78;95.66
69009;SHT31;56065;52.472;13.380;2023-07-28T01:58:07;18.76;95.59
69009;SHT31;56065;52.472;13.380;2023-07-28T02:00:32;18.71;95.64
69009;SHT31;56065;52.472;13.380;2023-07-28T02:02:58;18.77;95.47
69009;SHT31;56065;52.472;13.380;2023-07-28T02:05:26;18.78;95.61
69009;SHT31;56065;52.472;13.380;2023-07-28T02:07:52;18.77;95.62
69009;SHT31;56065;52.472;13.380;2023-07-28T02:10:17;18.77;95.63
69009;SHT31;56065;52.472;13.380;2023-07-28T02:12:43;18.76;95.63
69009;SHT31;56065;52.472;13.380;2023-07-28T02:15:08;18.71;95.91
69009;SHT31;56065;52.472;13.380;2023-07-28T02:17:33;18.73;95.70
69009;SHT31;56065;52.472;13.380;2023-07-28T02:19:59;18.74;96.05
69009;SHT31;56065;52.472;13.380;2023-07-28T02:22:24;18.74;95.93
69009;SHT31;56065;52.472;13.380;2023-07-28T02:24:50;18.77;96.03
69009;SHT31;56065;52.472;13.380;2023-07-28T02:27:15;18.81;95.84
69009;SHT31;56065;52.472;13.380;2023-07-28T02:29:41;18.84;95.75
69009;SHT31;56065;52.472;13.380;2023-07-28T02:32:07;18.80;95.70
69009;SHT31;56065;52.472;13.380;2023-07-28T02:34:32;18.81;95.82
69009;SHT31;56065;52.472;13.380;2023-07-28T02:36:58;18.81;95.76
69009;SHT31;56065;52.472;13.380;2023-07-28T02:39:23;18.78;95.79
69009;SHT31;56065;52.472;13.380;2023-07-28T02:41:49;18.80;95.85
69009;SHT31;56065;52.472;13.380;2023-07-28T02:44:15;18.81;95.89
69009;SHT31;56065;52.472;13.380;2023-07-28T02:46:40;18.84;95.91
69009;SHT31;56065;52.472;13.380;2023-07-28T02:49:06;18.86;95.94
69009;SHT31;56065;52.472;13.380;2023-07-28T02:51:31;18.86;96.01
69009;SHT31;56065;52.472;13.380;2023-07-28T02:53:58;18.88;95.80
69009;SHT31;56065;52.472;13.380;2023-07-28T02:56:24;18.90;95.70
69009;SHT31;56065;52.472;13.380;2023-07-28T02:58:49;18.90;95.60
69009;SHT31;56065;52.472;13.380;2023-07-28T03:01:14;18.87;95.86
69009;SHT31;56065;52.472;13.380;2023-07-28T03:03:40;18.93;95.95
69009;SHT31;56065;52.472;13.380;2023-07-28T03:06:05;18.90;95.79
69009;SHT31;56065;52.472;13.380;2023-07-28T03:08:30;18.90;95.86
69009;SHT31;56065;52.472;13.380;2023-07-28T03:10:59;18.93;95.57
69009;SHT31;56065;52.472;13.380;2023-07-28T03:13:27;18.90;95.57
69009;SHT31;56065;52.472;13.380;2023-07-28T03:15:53;18.90;95.73
69009;SHT31;56065;52.472;13.380;2023-07-28T03:18:18;18.87;95.67
69009;SHT31;56065;52.472;13.380;2023-07-28T03:20:43;18.88;95.69
69009;SHT31;56065;52.472;13.380;2023-07-28T03:23:09;18.90;95.79
69009;SHT31;56065;52.472;13.380;2023-07-28T03:25:34;18.91;95.87
69009;SHT31;56065;52.472;13.380;2023-07-28T03:27:59;18.90;95.94
69009;SHT31;56065;52.472;13.380;2023-07-28T03:30:25;18.93;95.69
69009;SHT31;56065;52.472;13.380;2023-07-28T03:32:50;18.94;95.80
69009;SHT31;56065;52.472;13.380;2023-07-28T03:35:15;18.95;95.49
69009;SHT31;56065;52.472;13.380;2023-07-28T03:37:41;18.97;95.48
69009;SHT31;56065;52.472;13.380;2023-07-28T03:40:07;18.94;95.53
69009;SHT31;56065;52.472;13.380;2023-07-28T03:42:32;18.95;95.78
69009;SHT31;56065;52.472;13.380;2023-07-28T03:44:58;18.97;95.86
69009;SHT31;56065;52.472;13.380;2023-07-28T03:47:23;18.98;95.60
69009;SHT31;56065;52.472;13.380;2023-07-28T03:49:49;19.03;95.71
69009;SHT31;56065;52.472;13.380;2023-07-28T03:52:14;19.01;95.55
69009;SHT31;56065;52.472;13.380;2023-07-28T03:54:40;19.03;95.60
69009;SHT31;56065;52.472;13.380;2023-07-28T03:57:05;19.03;95.75
69009;SHT31;56065;52.472;13.380;2023-07-28T03:59:30;19.07;95.41
69009;SHT31;56065;52.472;13.380;2023-07-28T04:01:56;19.05;95.34
69009;SHT31;56065;52.472;13.380;2023-07-28T04:04:21;19.01;95.47
69009;SHT31;56065;52.472;13.380;2023-07-28T04:06:48;19.03;95.52
69009;SHT31;56065;52.472;13.380;2023-07-28T04:09:18;19.04;95.88
69009;SHT31;56065;52.472;13.380;2023-07-28T04:11:44;19.10;95.52
69009;SHT31;56065;52.472;13.380;2023-07-28T04:14:09;19.11;95.42
69009;SHT31;56065;52.472;13.380;2023-07-28T04:16:35;19.11;95.31
69009;SHT31;56065;52.472;13.380;2023-07-28T04:19:01;19.19;95.35
69009;SHT31;56065;52.472;13.380;2023-07-28T04:21:26;19.29;95.27
69009;SHT31;56065;52.472;13.380;2023-07-28T04:23:52;19.32;95.05
69009;SHT31;56065;52.472;13.380;2023-07-28T04:26:17;19.31;94.88
69009;SHT31;56065;52.472;13.380;2023-07-28T04:28:43;19.34;95.01
69009;SHT31;56065;52.472;13.380;2023-07-28T04:31:09;19.38;94.66
69009;SHT31;56065;52.472;13.380;2023-07-28T04:33:34;19.48;94.55
69009;SHT31;56065;52.472;13.380;2023-07-28T04:36:02;19.49;94.45
69009;SHT31;56065;52.472;13.380;2023-07-28T04:38:28;19.52;94.39
69009;SHT31;56065;52.472;13.380;2023-07-28T04:40:53;19.55;94.23
69009;SHT31;56065;52.472;13.380;2023-07-28T04:43:18;19.51;94.18
69009;SHT31;56065;52.472;13.380;2023-07-28T04:45:45;19.45;94.21
69009;SHT31;56065;52.472;13.380;2023-07-28T04:48:10;19.49;94.39
69009;SHT31;56065;52.472;13.380;2023-07-28T04:50:35;19.41;94.63
69009;SHT31;56065;52.472;13.380;2023-07-28T04:53:01;19.45;94.49
69009;SHT31;56065;52.472;13.380;2023-07-28T04:55:27;19.45;94.37
69009;SHT31;56065;52.472;13.380;2023-07-28T04:57:53;19.45;94.41
69009;SHT31;56065;52.472;13.380;2023-07-28T05:00:18;19.51;94.46
69009;SHT31;56065;52.472;13.380;2023-07-28T05:02:44;19.55;94.45
69009;SHT31;56065;52.472;13.380;2023-07-28T05:05:09;19.46;94.13
69009;SHT31;56065;52.472;13.380;2023-07-28T05:07:34;19.48;94.18
69009;SHT31;56065;52.472;13.380;2023-07-28T05:10:00;19.42;94.23
69009;SHT31;56065;52.472;13.380;2023-07-28T05:12:25;19.39;94.05
69009;SHT31;56065;52.472;13.380;2023-07-28T05:14:50;19.48;94.24
69009;SHT31;56065;52.472;13.380;2023-07-28T05:17:16;19.52;94.29
69009;SHT31;56065;52.472;13.380;2023-07-28T05:19:41;19.58;94.22
69009;SHT31;56065;52.472;13.380;2023-07-28T05:22:07;19.66;94.00
69009;SHT31;56065;52.472;13.380;2023-07-28T05:24:35;19.73;93.74
69009;SHT31;56065;52.472;13.380;2023-07-28T05:27:00;19.79;93.37
69009;SHT31;56065;52.472;13.380;2023-07-28T05:29:26;19.75;93.33
69009;SHT31;56065;52.472;13.380;2023-07-28T05:31:51;19.79;93.60
69009;SHT31;56065;52.472;13.380;2023-07-28T05:34:16;19.77;93.51
69009;SHT31;56065;52.472;13.380;2023-07-28T05:36:43;19.79;93.57
69009;SHT31;56065;52.472;13.380;2023-07-28T05:39:09;19.75;93.36
69009;SHT31;56065;52.472;13.380;2023-07-28T05:41:35;19.80;93.56
69009;SHT31;56065;52.472;13.380;2023-07-28T05:44:01;19.90;93.78
69009;SHT31;56065;52.472;13.380;2023-07-28T05:46:26;20.00;93.67
69009;SHT31;56065;52.472;13.380;2023-07-28T05:48:54;19.98;92.97
69009;SHT31;56065;52.472;13.380;2023-07-28T05:51:20;20.00;93.20
69009;SHT31;56065;52.472;13.380;2023-07-28T05:53:45;20.03;93.46
69009;SHT31;56065;52.472;13.380;2023-07-28T05:56:10;20.10;93.07
69009;SHT31;56065;52.472;13.380;2023-07-28T05:58:36;20.04;92.73
69009;SHT31;56065;52.472;13.380;2023-07-28T06:01:01;20.06;92.91
69009;SHT31;56065;52.472;13.380;2023-07-28T06:03:26;20.03;92.96
69009;SHT31;56065;52.472;13.380;2023-07-28T06:05:54;20.01;93.10
69009;SHT31;56065;52.472;13.380;2023-07-28T06:08:19;20.01;93.12
69009;SHT31;56065;52.472;13.380;2023-07-28T06:10:44;20.00;93.14
69009;SHT31;56065;52.472;13.380;2023-07-28T06:13:10;19.97;93.05
69009;SHT31;56065;52.472;13.380;2023-07-28T06:15:38;20.00;93.08
69009;SHT31;56065;52.472;13.380;2023-07-28T06:18:04;20.10;93.11
69009;SHT31;56065;52.472;13.380;2023-07-28T06:20:30;20.10;92.92
69009;SHT31;56065;52.472;13.380;2023-07-28T06:22:55;20.14;92.72
69009;SHT31;56065;52.472;13.380;2023-07-28T06:25:20;20.13;92.68
69009;SHT31;56065;52.472;13.380;2023-07-28T06:27:46;20.18;92.66
69009;SHT31;56065;52.472;13.380;2023-07-28T06:30:12;20.30;92.56
69009;SHT31;56065;52.472;13.380;2023-07-28T06:32:37;20.33;92.34
69009;SHT31;56065;52.472;13.380;2023-07-28T06:35:03;20.41;92.26
69009;SHT31;56065;52.472;13.380;2023-07-28T06:37:28;20.44;92.19
69009;SHT31;56065;52.472;13.380;2023-07-28T06:39:53;20.40;91.89
69009;SHT31;56065;52.472;13.380;2023-07-28T06:42:21;20.58;92.23
69009;SHT31;56065;52.472;13.380;2023-07-28T06:44:49;20.63;91.76
69009;SHT31;56065;52.472;13.380;2023-07-28T06:47:15;20.67;91.37
69009;SHT31;56065;52.472;13.380;2023-07-28T06:49:41;20.79;91.47
69009;SHT31;56065;52.472;13.380;2023-07-28T06:52:06;20.82;91.11
69009;SHT31;56065;52.472;13.380;2023-07-28T06:54:32;20.85;90.95
69009;SHT31;56065;52.472;13.380;2023-07-28T06:56:57;20.86;90.87
69009;SHT31;56065;52.472;13.380;2023-07-28T06:59:22;20.82;90.83
69009;SHT31;56065;52.472;13.380;2023-07-28T07:01:48;20.79;90.85
69009;SHT31;56065;52.472;13.380;2023-07-28T07:04:13;20.82;90.63
69009;SHT31;56065;52.472;13.380;2023-07-28T07:06:38;20.86;90.52
69009;SHT31;56065;52.472;13.380;2023-07-28T07:09:04;20.85;90.71
69009;SHT31;56065;52.472;13.380;2023-07-28T07:11:30;20.95;90.71
69009;SHT31;56065;52.472;13.380;2023-07-28T07:13:56;21.09;90.61
69009;SHT31;56065;52.472;13.380;2023-07-28T07:16:21;21.25;90.46
69009;SHT31;56065;52.472;13.380;2023-07-28T07:18:47;21.40;89.72
69009;SHT31;56065;52.472;13.380;2023-07-28T07:21:12;21.42;89.47
69009;SHT31;56065;52.472;13.380;2023-07-28T07:23:37;21.45;89.63
69009;SHT31;56065;52.472;13.380;2023-07-28T07:26:03;21.50;88.92
69009;SHT31;56065;52.472;13.380;2023-07-28T07:28:28;21.64;89.05
69009;SHT31;56065;52.472;13.380;2023-07-28T07:30:54;22.00;88.69
69009;SHT31;56065;52.472;13.380;2023-07-28T07:33:20;22.48;87.75
69009;SHT31;56065;52.472;13.380;2023-07-28T07:35:46;22.82;86.98
69009;SHT31;56065;52.472;13.380;2023-07-28T07:38:11;23.21;86.33
69009;SHT31;56065;52.472;13.380;2023-07-28T07:40:36;23.47;84.50
69009;SHT31;56065;52.472;13.380;2023-07-28T07:43:02;23.54;83.74
69009;SHT31;56065;52.472;13.380;2023-07-28T07:45:29;23.96;83.55
69009;SHT31;56065;52.472;13.380;2023-07-28T07:47:55;24.44;81.97
69009;SHT31;56065;52.472;13.380;2023-07-28T07:50:20;24.99;81.70
69009;SHT31;56065;52.472;13.380;2023-07-28T07:52:47;26.58;79.54
69009;SHT31;56065;52.472;13.380;2023-07-28T07:55:12;26.55;76.62
69009;SHT31;56065;52.472;13.380;2023-07-28T07:57:39;26.35;76.24
69009;SHT31;56065;52.472;13.380;2023-07-28T08:00:05;25.86;77.29
69009;SHT31;56065;52.472;13.380;2023-07-28T08:02:30;25.89;77.29
69009;SHT31;56065;52.472;13.380;2023-07-28T08:04:56;26.07;76.20
69009;SHT31;56065;52.472;13.380;2023-07-28T08:07:21;25.97;76.29
69009;SHT31;56065;52.472;13.380;2023-07-28T08:09:47;27.09;75.04
69009;SHT31;56065;52.472;13.380;2023-07-28T08:12:14;28.79;70.60
69009;SHT31;56065;52.472;13.380;2023-07-28T08:14:40;29.35;67.81
69009;SHT31;56065;52.472;13.380;2023-07-28T08:17:05;29.95;68.08
69009;SHT31;56065;52.472;13.380;2023-07-28T08:19:31;30.56;66.00
69009;SHT31;56065;52.472;13.380;2023-07-28T08:21:56;31.07;64.52
69009;SHT31;56065;52.472;13.380;2023-07-28T08:24:22;30.68;65.24
69009;SHT31;56065;52.472;13.380;2023-07-28T08:26:47;29.79;66.20
69009;SHT31;56065;52.472;13.380;2023-07-28T08:29:12;28.65;68.79
69009;SHT31;56065;52.472;13.380;2023-07-28T08:31:38;27.51;69.86
69009;SHT31;56065;52.472;13.380;2023-07-28T08:34:03;26.92;71.72
69009;SHT31;56065;52.472;13.380;2023-07-28T08:36:28;26.65;72.65
69009;SHT31;56065;52.472;13.380;2023-07-28T08:38:54;26.56;72.81
69009;SHT31;56065;52.472;13.380;2023-07-28T08:41:19;26.35;73.62
69009;SHT31;56065;52.472;13.380;2023-07-28T08:43:45;26.31;74.39
69009;SHT31;56065;52.472;13.380;2023-07-28T08:46:11;26.92;74.69
69009;SHT31;56065;52.472;13.380;2023-07-28T08:48:36;27.98;72.02
69009;SHT31;56065;52.472;13.380;2023-07-28T08:51:02;28.93;69.86
69009;SHT31;56065;52.472;13.380;2023-07-28T08:53:29;28.72;68.30
69009;SHT31;56065;52.472;13.380;2023-07-28T08:55:54;27.67;71.13
69009;SHT31;56065;52.472;13.380;2023-07-28T08:58:22;26.52;73.99
69009;SHT31;56065;52.472;13.380;2023-07-28T09:00:48;25.79;75.70
69009;SHT31;56065;52.472;13.380;2023-07-28T09:03:15;25.16;77.39
69009;SHT31;56065;52.472;13.380;2023-07-28T09:05:44;24.73;78.02
69009;SHT31;56065;52.472;13.380;2023-07-28T09:08:12;24.63;78.33
69009;SHT31;56065;52.472;13.380;2023-07-28T09:10:55;24.66;78.29
69009;SHT31;56065;52.472;13.380;2023-07-28T09:13:21;25.04;77.81
69009;SHT31;56065;52.472;13.380;2023-07-28T09:15:47;25.80;75.97
69009;SHT31;56065;52.472;13.380;2023-07-28T09:18:16;25.47;75.97
69009;SHT31;56065;52.472;13.380;2023-07-28T09:20:42;25.39;77.06
69009;SHT31;56065;52.472;13.380;2023-07-28T09:23:08;25.15;77.05
69009;SHT31;56065;52.472;13.380;2023-07-28T09:25:35;24.64;77.62
69009;SHT31;56065;52.472;13.380;2023-07-28T09:28:02;24.44;78.87
69009;SHT31;56065;52.472;13.380;2023-07-28T09:30:43;24.37;79.57
69009;SHT31;56065;52.472;13.380;2023-07-28T09:33:09;24.19;79.63
69009;SHT31;56065;52.472;13.380;2023-07-28T09:35:34;24.32;80.18
69009;SHT31;56065;52.472;13.380;2023-07-28T09:38:01;25.05;79.01
69009;SHT31;56065;52.472;13.380;2023-07-28T09:40:26;26.37;76.67
69009;SHT31;56065;52.472;13.380;2023-07-28T09:42:52;28.02;72.30
69009;SHT31;56065;52.472;13.380;2023-07-28T09:45:20;29.50;70.25
69009;SHT31;56065;52.472;13.380;2023-07-28T09:47:47;30.41;66.72
69009;SHT31;56065;52.472;13.380;2023-07-28T09:50:16;30.77;64.66
69009;SHT31;56065;52.472;13.380;2023-07-28T09:52:46;30.02;64.37
69009;SHT31;56065;52.472;13.380;2023-07-28T09:55:12;29.31;66.98
69009;SHT31;56065;52.472;13.380;2023-07-28T09:57:50;28.49;68.24
69009;SHT31;56065;52.472;13.380;2023-07-28T10:00:17;28.15;69.68
69009;SHT31;56065;52.472;13.380;2023-07-28T10:02:44;28.06;69.83
69009;SHT31;56065;52.472;13.380;2023-07-28T10:05:10;28.15;69.94
69009;SHT31;56065;52.472;13.380;2023-07-28T10:07:39;29.10;69.03
69009;SHT31;56065;52.472;13.380;2023-07-28T10:10:06;29.90;66.87
69009;SHT31;56065;52.472;13.380;2023-07-28T10:12:54;30.57;65.24
69009;SHT31;56065;52.472;13.380;2023-07-28T10:15:21;30.73;64.92
69009;SHT31;56065;52.472;13.380;2023-07-28T10:17:54;31.05;63.37
69009;SHT31;56065;52.472;13.380;2023-07-28T10:20:35;31.93;63.84
69009;SHT31;56065;52.472;13.380;2023-07-28T10:23:07;31.70;63.27
69009;SHT31;56065;52.472;13.380;2023-07-28T10:25:37;31.59;63.62
69009;SHT31;56065;52.472;13.380;2023-07-28T10:28:04;30.75;64.14
69009;SHT31;56065;52.472;13.380;2023-07-28T10:30:38;29.61;66.02
69009;SHT31;56065;52.472;13.380;2023-07-28T10:33:04;28.55;69.06
69009;SHT31;56065;52.472;13.380;2023-07-28T10:35:29;27.84;70.71
69009;SHT31;56065;52.472;13.380;2023-07-28T10:37:57;27.87;71.32
69009;SHT31;56065;52.472;13.380;2023-07-28T10:40:33;29.62;69.15
69009;SHT31;56065;52.472;13.380;2023-07-28T10:43:00;31.84;67.46
69009;SHT31;56065;52.472;13.380;2023-07-28T10:45:27;32.81;62.42
69009;SHT31;56065;52.472;13.380;2023-07-28T10:47:54;33.29;61.56
69009;SHT31;56065;52.472;13.380;2023-07-28T10:50:21;33.70;59.91
69009;SHT31;56065;52.472;13.380;2023-07-28T10:52:47;34.40;60.38
69009;SHT31;56065;52.472;13.380;2023-07-28T10:55:25;35.43;57.38
69009;SHT31;56065;52.472;13.380;2023-07-28T10:57:51;36.48;56.48
69009;SHT31;56065;52.472;13.380;2023-07-28T11:00:18;36.56;55.88
69009;SHT31;56065;52.472;13.380;2023-07-28T11:02:45;37.27;55.88
69009;SHT31;56065;52.472;13.380;2023-07-28T11:05:22;36.59;53.21
69009;SHT31;56065;52.472;13.380;2023-07-28T11:07:49;35.58;55.39
69009;SHT31;56065;52.472;13.380;2023-07-28T11:10:15;34.69;56.88
69009;SHT31;56065;52.472;13.380;2023-07-28T11:12:44;33.09;58.31
69009;SHT31;56065;52.472;13.380;2023-07-28T11:15:11;31.76;60.06
69009;SHT31;56065;52.472;13.380;2023-07-28T11:17:40;31.16;61.44
69009;SHT31;56065;52.472;13.380;2023-07-28T11:20:20;30.59;63.09
69009;SHT31;56065;52.472;13.380;2023-07-28T11:23:07;30.37;62.71
69009;SHT31;56065;52.472;13.380;2023-07-28T11:25:33;29.51;65.05
69009;SHT31;56065;52.472;13.380;2023-07-28T11:28:03;28.97;66.52
69009;SHT31;56065;52.472;13.380;2023-07-28T11:30:31;28.49;67.91
69009;SHT31;56065;52.472;13.380;2023-07-28T11:32:57;27.91;69.01
69009;SHT31;56065;52.472;13.380;2023-07-28T11:35:22;27.26;71.08
69009;SHT31;56065;52.472;13.380;2023-07-28T11:37:51;26.82;72.74
69009;SHT31;56065;52.472;13.380;2023-07-28T11:40:20;26.79;72.92
69009;SHT31;56065;52.472;13.380;2023-07-28T11:42:49;27.00;73.15
69009;SHT31;56065;52.472;13.380;2023-07-28T11:45:16;27.94;72.35
69009;SHT31;56065;52.472;13.380;2023-07-28T11:48:11;28.60;71.28
69009;SHT31;56065;52.472;13.380;2023-07-28T11:50:40;29.07;70.01
69009;SHT31;56065;52.472;13.380;2023-07-28T11:53:07;29.14;69.99
69009;SHT31;56065;52.472;13.380;2023-07-28T11:55:35;28.99;70.19
69009;SHT31;56065;52.472;13.380;2023-07-28T11:58:01;28.83;69.96
69009;SHT31;56065;52.472;13.380;2023-07-28T12:00:37;30.13;69.27
69009;SHT31;56065;52.472;13.380;2023-07-28T12:03:06;31.21;67.21
69009;SHT31;56065;52.472;13.380;2023-07-28T12:05:37;32.75;65.52
69009;SHT31;56065;52.472;13.380;2023-07-28T12:08:03;33.84;62.82
69009;SHT31;56065;52.472;13.380;2023-07-28T12:10:29;33.15;61.29
69009;SHT31;56065;52.472;13.380;2023-07-28T12:12:54;32.54;62.36
69009;SHT31;56065;52.472;13.380;2023-07-28T12:15:27;32.04;63.67
69009;SHT31;56065;52.472;13.380;2023-07-28T12:20:37;31.43;64.46
69009;SHT31;56065;52.472;13.380;2023-07-28T12:23:03;31.76;64.01
69009;SHT31;56065;52.472;13.380;2023-07-28T12:25:29;31.70;63.88
69009;SHT31;56065;52.472;13.380;2023-07-28T12:27:54;31.59;64.53
69009;SHT31;56065;52.472;13.380;2023-07-28T12:30:20;31.10;64.94
69009;SHT31;56065;52.472;13.380;2023-07-28T12:32:46;30.44;65.35
69009;SHT31;56065;52.472;13.380;2023-07-28T12:35:12;29.82;66.18
69009;SHT31;56065;52.472;13.380;2023-07-28T12:37:38;29.23;67.37
69009;SHT31;56065;52.472;13.380;2023-07-28T12:40:04;28.57;69.00
69009;SHT31;56065;52.472;13.380;2023-07-28T12:42:31;28.18;69.25
69009;SHT31;56065;52.472;13.380;2023-07-28T12:44:56;27.77;70.05
69009;SHT31;56065;52.472;13.380;2023-07-28T12:47:22;27.54;70.57
69009;SHT31;56065;52.472;13.380;2023-07-28T12:49:47;27.47;70.91
69009;SHT31;56065;52.472;13.380;2023-07-28T12:52:13;27.30;71.97
69009;SHT31;56065;52.472;13.380;2023-07-28T12:54:38;27.53;72.29
69009;SHT31;56065;52.472;13.380;2023-07-28T12:57:05;27.84;70.99
69009;SHT31;56065;52.472;13.380;2023-07-28T12:59:32;28.08;69.89
69009;SHT31;56065;52.472;13.380;2023-07-28T13:01:58;28.12;69.72
69009;SHT31;56065;52.472;13.380;2023-07-28T13:04:23;28.09;69.70
69009;SHT31;56065;52.472;13.380;2023-07-28T13:06:49;28.38;70.01
69009;SHT31;56065;52.472;13.380;2023-07-28T13:09:14;28.59;68.72
69009;SHT31;56065;52.472;13.380;2023-07-28T13:11:40;28.70;68.18
69009;SHT31;56065;52.472;13.380;2023-07-28T13:14:05;28.63;68.26
69009;SHT31;56065;52.472;13.380;2023-07-28T13:16:30;28.69;68.43
69009;SHT31;56065;52.472;13.380;2023-07-28T13:18:56;28.70;68.56
69009;SHT31;56065;52.472;13.380;2023-07-28T13:21:22;28.72;68.47
69009;SHT31;56065;52.472;13.380;2023-07-28T13:23:48;28.77;69.09
69009;SHT31;56065;52.472;13.380;2023-07-28T13:26:13;29.08;68.93
69009;SHT31;56065;52.472;13.380;2023-07-28T13:28:38;29.96;68.73
69009;SHT31;56065;52.472;13.380;2023-07-28T13:31:08;30.61;68.15
69009;SHT31;56065;52.472;13.380;2023-07-28T13:33:33;30.59;67.82
69009;SHT31;56065;52.472;13.380;2023-07-28T13:35:59;30.48;66.65
69009;SHT31;56065;52.472;13.380;2023-07-28T13:38:24;30.41;66.56
69009;SHT31;56065;52.472;13.380;2023-07-28T13:40:49;30.12;66.58
69009;SHT31;56065;52.472;13.380;2023-07-28T13:43:15;30.13;67.37
69009;SHT31;56065;52.472;13.380;2023-07-28T13:45:40;29.69;66.24
69009;SHT31;56065;52.472;13.380;2023-07-28T13:48:05;29.43;66.89
69009;SHT31;56065;52.472;13.380;2023-07-28T13:50:31;29.04;67.64
69009;SHT31;56065;52.472;13.380;2023-07-28T13:52:56;28.75;68.10
69009;SHT31;56065;52.472;13.380;2023-07-28T13:55:22;28.69;69.14
69009;SHT31;56065;52.472;13.380;2023-07-28T13:57:47;28.46;68.75
69009;SHT31;56065;52.472;13.380;2023-07-28T14:00:13;28.26;68.99
69009;SHT31;56065;52.472;13.380;2023-07-28T14:02:39;28.32;68.90
69009;SHT31;56065;52.472;13.380;2023-07-28T14:05:05;28.24;70.44
69009;SHT31;56065;52.472;13.380;2023-07-28T14:07:31;28.21;70.57
69009;SHT31;56065;52.472;13.380;2023-07-28T14:09:57;28.22;70.64
69009;SHT31;56065;52.472;13.380;2023-07-28T14:12:22;28.26;70.80
69009;SHT31;56065;52.472;13.380;2023-07-28T14:14:47;28.15;70.01
69009;SHT31;56065;52.472;13.380;2023-07-28T14:17:15;27.95;70.53
69009;SHT31;56065;52.472;13.380;2023-07-28T14:19:40;28.08;70.82
69009;SHT31;56065;52.472;13.380;2023-07-28T14:22:06;28.28;70.19
69009;SHT31;56065;52.472;13.380;2023-07-28T14:24:31;28.57;69.87
69009;SHT31;56065;52.472;13.380;2023-07-28T14:26:56;29.07;69.44
69009;SHT31;56065;52.472;13.380;2023-07-28T14:29:22;29.50;69.38
69009;SHT31;56065;52.472;13.380;2023-07-28T14:31:48;29.79;67.01
69009;SHT31;56065;52.472;13.380;2023-07-28T14:34:13;29.76;67.65
69009;SHT31;56065;52.472;13.380;2023-07-28T14:36:39;29.84;66.73
69009;SHT31;56065;52.472;13.380;2023-07-28T14:39:04;29.66;66.88
69009;SHT31;56065;52.472;13.380;2023-07-28T14:41:30;29.38;67.02
69009;SHT31;56065;52.472;13.380;2023-07-28T14:43:55;29.10;66.91
69009;SHT31;56065;52.472;13.380;2023-07-28T14:46:20;28.70;67.55
69009;SHT31;56065;52.472;13.380;2023-07-28T14:48:48;28.51;67.90
69009;SHT31;56065;52.472;13.380;2023-07-28T14:51:15;28.53;68.47
69009;SHT31;56065;52.472;13.380;2023-07-28T14:53:40;28.76;68.05
69009;SHT31;56065;52.472;13.380;2023-07-28T14:56:06;28.94;68.36
69009;SHT31;56065;52.472;13.380;2023-07-28T14:58:31;28.76;67.96
69009;SHT31;56065;52.472;13.380;2023-07-28T15:00:57;28.52;68.33
69009;SHT31;56065;52.472;13.380;2023-07-28T15:03:26;28.49;68.64
69009;SHT31;56065;52.472;13.380;2023-07-28T15:05:51;28.65;68.51
69009;SHT31;56065;52.472;13.380;2023-07-28T15:08:17;28.65;68.13
69009;SHT31;56065;52.472;13.380;2023-07-28T15:10:42;28.38;67.94
69009;SHT31;56065;52.472;13.380;2023-07-28T15:13:08;28.31;68.02
69009;SHT31;56065;52.472;13.380;2023-07-28T15:15:33;28.09;68.64
69009;SHT31;56065;52.472;13.380;2023-07-28T15:17:59;28.04;69.06